Time;durP1;ratioP1;P1;durP2;ratioP2;P2;SDS_P1;SDS_P2;PMS_P1;PMS_P2;Temp;Humidity;BMP_temperature;BMP_pressure;BME280_temperature;BME280_humidity;BME280_pressure;Samples;Min_cycle;Max_cycle;Signal;HPM_P1;HPM_P2
2023/01/02 00:01:35;;;;;;;7.77;3.50;;;11.70;99.90;;;;;;5098506;28;20236;-83
2023/01/02 00:04:01;;;;;;;9.33;3.30;;;11.70;99.90;;;;;;5096955;28;20206;-83
2023/01/02 00:06:28;;;;;;;9.23;3.90;;;11.90;99.90;;;;;;5098360;28;20209;-83
2023/01/02 00:08:55;;;;;;;8.73;3.43;;;12.00;99.90;;;;;;5096735;28;20225;-83
2023/01/02 00:11:22;;;;;;;8.50;3.50;;;12.00;99.90;;;;;;5102551;28;20201;-84
2023/01/02 00:13:49;;;;;;;6.40;3.20;;;11.90;99.90;;;;;;5119016;28;20199;-84
2023/01/02 00:16:17;;;;;;;9.90;4.00;;;12.10;99.90;;;;;;5119110;27;20567;-84
2023/01/02 00:18:43;;;;;;;10.70;3.67;;;12.00;99.90;;;;;;5122754;27;20199;-83
2023/01/02 00:21:10;;;;;;;9.43;4.10;;;12.10;99.90;;;;;;5116944;28;20205;-83
2023/01/02 00:23:37;;;;;;;9.67;3.77;;;12.30;99.90;;;;;;5110772;28;20205;-84
2023/01/02 00:26:04;;;;;;;10.13;3.63;;;12.30;99.90;;;;;;5112574;28;20442;-83
2023/01/02 00:28:32;;;;;;;6.67;3.60;;;12.40;99.90;;;;;;5121108;28;20802;-83
2023/01/02 00:30:59;;;;;;;7.57;3.57;;;12.50;99.90;;;;;;5119798;28;20208;-84
2023/01/02 00:33:27;;;;;;;8.97;3.63;;;12.30;99.90;;;;;;5103889;28;20228;-84
2023/01/02 00:35:54;;;;;;;9.50;3.67;;;12.40;99.90;;;;;;5119773;28;20200;-84
2023/01/02 00:38:20;;;;;;;9.93;3.20;;;12.50;99.90;;;;;;5109485;28;20205;-83
2023/01/02 00:40:47;;;;;;;9.50;3.40;;;12.60;99.90;;;;;;5101413;28;20708;-83
2023/01/02 00:43:15;;;;;;;8.73;3.93;;;12.50;99.90;;;;;;5112329;28;20248;-84
2023/01/02 00:45:43;;;;;;;10.13;3.33;;;12.50;99.90;;;;;;5110688;28;20237;-83
2023/01/02 00:48:10;;;;;;;9.00;3.67;;;12.40;99.90;;;;;;5110052;28;20300;-83
2023/01/02 00:50:38;;;;;;;11.90;3.67;;;12.40;99.90;;;;;;5109969;28;20322;-83
2023/01/02 00:53:05;;;;;;;11.37;3.43;;;12.50;99.90;;;;;;5119437;28;20232;-84
2023/01/02 00:55:32;;;;;;;10.50;3.60;;;12.40;99.90;;;;;;5115965;27;20212;-83
2023/01/02 00:57:58;;;;;;;8.33;3.20;;;12.40;99.90;;;;;;5103437;28;20203;-84
2023/01/02 01:00:25;;;;;;;9.33;3.40;;;12.40;99.90;;;;;;5107074;28;20193;-85
2023/01/02 01:02:56;;;;;;;7.33;3.60;;;12.40;99.90;;;;;;5101478;28;20732;-83
2023/01/02 01:05:23;;;;;;;9.80;3.60;;;12.50;99.90;;;;;;5105674;28;20221;-84
2023/01/02 01:07:51;;;;;;;8.17;3.60;;;12.40;99.90;;;;;;5119364;28;20564;-84
2023/01/02 01:10:18;;;;;;;6.27;3.40;;;12.70;99.90;;;;;;5114058;28;20206;-84
2023/01/02 01:12:44;;;;;;;7.97;3.23;;;12.50;99.90;;;;;;5114178;28;20770;-83
2023/01/02 01:15:11;;;;;;;11.00;3.47;;;12.50;99.90;;;;;;5108100;28;20193;-83
2023/01/02 01:17:38;;;;;;;5.13;3.10;;;12.50;99.90;;;;;;5113679;28;20203;-84
2023/01/02 01:20:06;;;;;;;7.43;3.37;;;12.30;99.90;;;;;;5121243;28;20299;-83
2023/01/02 01:22:33;;;;;;;9.13;4.10;;;12.40;99.90;;;;;;5105353;28;20297;-83
2023/01/02 01:25:02;;;;;;;7.53;3.60;;;12.30;99.90;;;;;;5109479;28;20288;-84
2023/01/02 01:27:29;;;;;;;6.30;3.40;;;12.40;99.90;;;;;;5118445;28;20197;-84
2023/01/02 01:29:55;;;;;;;5.27;3.33;;;12.40;99.90;;;;;;5120700;28;20221;-83
2023/01/02 01:32:22;;;;;;;7.43;3.50;;;12.20;99.90;;;;;;5116113;28;20220;-84
2023/01/02 01:34:49;;;;;;;7.80;3.57;;;12.30;99.90;;;;;;5106860;28;20208;-84
2023/01/02 01:37:16;;;;;;;8.20;3.77;;;12.40;99.90;;;;;;5115655;28;20201;-83
2023/01/02 01:39:42;;;;;;;8.57;3.80;;;12.40;99.90;;;;;;5121711;28;20201;-82
2023/01/02 01:42:13;;;;;;;8.07;3.43;;;12.60;99.90;;;;;;5112619;28;20727;-85
2023/01/02 01:44:46;;;;;;;5.17;2.73;;;12.70;99.90;;;;;;5098633;28;20220;-84
2023/01/02 01:47:23;;;;;;;5.07;3.10;;;12.60;99.90;;;;;;5103240;28;20261;-83
2023/01/02 01:49:54;;;;;;;9.73;3.67;;;12.50;99.90;;;;;;5099584;28;20223;-85
2023/01/02 01:52:25;;;;;;;6.30;3.00;;;12.60;99.90;;;;;;5110866;28;20244;-83
2023/01/02 01:54:58;;;;;;;9.63;3.57;;;12.60;99.90;;;;;;5115103;28;20193;-83
2023/01/02 01:57:31;;;;;;;10.67;4.00;;;12.70;99.90;;;;;;5107087;28;20198;-84
2023/01/02 02:00:00;;;;;;;7.83;3.07;;;12.70;99.90;;;;;;5111554;28;20590;-82
2023/01/02 02:02:28;;;;;;;7.80;3.20;;;12.70;99.90;;;;;;5107506;28;20262;-83
2023/01/02 02:04:58;;;;;;;9.27;3.47;;;12.70;99.90;;;;;;5100094;28;20222;-84
2023/01/02 02:07:24;;;;;;;9.30;3.50;;;12.70;99.90;;;;;;5100980;28;20213;-83
2023/01/02 02:09:55;;;;;;;10.43;3.40;;;12.70;99.90;;;;;;5119128;28;20217;-83
2023/01/02 02:12:22;;;;;;;7.67;3.10;;;12.50;99.90;;;;;;5111691;28;20592;-83
2023/01/02 02:14:50;;;;;;;12.87;3.90;;;12.50;99.90;;;;;;5112950;28;20189;-84
2023/01/02 02:17:24;;;;;;;7.00;3.40;;;12.70;99.90;;;;;;5113191;28;20215;-83
2023/01/02 02:20:29;;;;;;;7.37;3.20;;;12.70;99.90;;;;;;5113377;28;20288;-83
2023/01/02 02:23:31;;;;;;;10.03;3.40;;;12.80;99.90;;;;;;5092973;28;20319;-83
2023/01/02 02:26:27;;;;;;;9.33;3.53;;;12.70;99.90;;;;;;5112848;28;20196;-85
2023/01/02 02:29:43;;;;;;;6.63;3.20;;;12.60;99.90;;;;;;5102674;28;20220;-83
2023/01/02 02:32:20;;;;;;;10.40;4.37;;;12.70;99.90;;;;;;5112534;28;20304;-82
2023/01/02 02:34:52;;;;;;;7.47;3.47;;;12.90;99.90;;;;;;5105462;28;20207;-83
2023/01/02 02:37:25;;;;;;;9.90;4.07;;;12.80;99.90;;;;;;5099517;28;20635;-83
2023/01/02 02:40:01;;;;;;;10.97;3.27;;;12.90;99.90;;;;;;5118220;28;20211;-83
2023/01/02 02:42:36;;;;;;;5.17;3.17;;;12.90;99.90;;;;;;5113679;28;20304;-82
2023/01/02 02:45:10;;;;;;;9.10;3.10;;;13.20;99.90;;;;;;5115332;28;20210;-83
2023/01/02 02:47:47;;;;;;;7.37;3.53;;;13.30;99.90;;;;;;5106960;28;20200;-83
2023/01/02 02:50:20;;;;;;;10.23;2.70;;;13.30;99.90;;;;;;5117019;28;20227;-84
2023/01/02 02:52:54;;;;;;;7.80;3.13;;;13.30;99.90;;;;;;5100664;28;20235;-84
2023/01/02 02:55:25;;;;;;;12.33;3.87;;;13.50;99.90;;;;;;5118239;28;20688;-82
2023/01/02 02:57:53;;;;;;;5.17;2.80;;;13.40;99.90;;;;;;5115676;28;20211;-83
2023/01/02 03:00:23;;;;;;;8.63;3.10;;;13.40;99.90;;;;;;5114906;28;20201;-83
2023/01/02 03:02:50;;;;;;;6.50;3.00;;;13.30;99.90;;;;;;5100433;28;20225;-85
2023/01/02 03:05:21;;;;;;;10.63;3.57;;;13.20;99.90;;;;;;5116336;28;20209;-83
2023/01/02 03:07:55;;;;;;;5.90;2.80;;;13.40;99.90;;;;;;5099460;28;20205;-84
2023/01/02 03:10:31;;;;;;;8.93;3.30;;;13.40;99.90;;;;;;5100590;28;20281;-83
2023/01/02 03:13:08;;;;;;;8.10;3.33;;;13.70;99.90;;;;;;5112588;28;20205;-83
2023/01/02 03:15:41;;;;;;;11.23;3.37;;;13.40;99.90;;;;;;5113965;28;20210;-86
2023/01/02 03:18:18;;;;;;;9.47;3.40;;;13.30;99.90;;;;;;5105213;28;20666;-83
2023/01/02 03:20:49;;;;;;;8.47;3.00;;;13.40;99.90;;;;;;5117473;28;20301;-83
2023/01/02 03:23:20;;;;;;;9.57;2.90;;;13.50;99.90;;;;;;5117469;28;20221;-84
2023/01/02 03:25:48;;;;;;;7.33;3.20;;;13.60;99.90;;;;;;5106218;28;20197;-83
2023/01/02 03:28:18;;;;;;;7.10;3.20;;;13.70;99.90;;;;;;5098729;28;20209;-83
2023/01/02 03:30:49;;;;;;;8.47;3.20;;;13.70;99.90;;;;;;5106188;28;20394;-83
2023/01/02 03:33:18;;;;;;;6.83;2.93;;;13.70;99.90;;;;;;5113200;28;20217;-83
2023/01/02 03:35:49;;;;;;;7.23;3.40;;;13.80;99.90;;;;;;5117102;28;20199;-83
2023/01/02 03:38:22;;;;;;;7.17;3.10;;;13.60;99.90;;;;;;5112012;28;20562;-83
2023/01/02 03:40:58;;;;;;;8.27;2.83;;;13.60;99.90;;;;;;5110528;28;20218;-82
2023/01/02 03:43:28;;;;;;;5.13;2.65;;;13.80;99.90;;;;;;5114543;28;20213;-83
2023/01/02 03:46:08;;;;;;;5.13;2.53;;;13.60;99.90;;;;;;5110122;28;20231;-83
2023/01/02 03:48:39;;;;;;;8.93;3.10;;;13.60;99.90;;;;;;5103907;28;20261;-83
2023/01/02 03:51:07;;;;;;;8.37;3.43;;;13.60;99.90;;;;;;5102767;28;20201;-83
2023/01/02 03:53:36;;;;;;;11.23;3.10;;;13.80;99.90;;;;;;5101954;28;20227;-82
2023/01/02 03:56:13;;;;;;;11.00;3.70;;;13.70;99.90;;;;;;5102461;28;20218;-83
2023/01/02 03:58:48;;;;;;;7.73;3.20;;;13.60;99.90;;;;;;5101923;28;20288;-83
2023/01/02 04:01:25;;;;;;;10.70;3.50;;;13.60;99.90;;;;;;5105418;28;20193;-83
2023/01/02 04:03:59;;;;;;;7.40;3.07;;;13.60;99.90;;;;;;5106844;28;20212;-83
2023/01/02 04:06:31;;;;;;;6.47;2.90;;;13.80;99.90;;;;;;5118675;28;20223;-83
2023/01/02 04:09:06;;;;;;;5.80;2.90;;;13.70;99.90;;;;;;5122618;28;20217;-82
2023/01/02 04:11:35;;;;;;;9.77;2.87;;;13.60;99.90;;;;;;5110930;28;20225;-83
2023/01/02 04:14:07;;;;;;;8.07;3.13;;;13.60;99.90;;;;;;5117254;28;20211;-83
2023/01/02 04:16:38;;;;;;;6.20;3.10;;;13.50;99.90;;;;;;5112096;27;20208;-83
2023/01/02 04:19:12;;;;;;;7.17;3.17;;;13.70;99.90;;;;;;5115572;28;20559;-81
2023/01/02 04:21:41;;;;;;;9.00;4.07;;;13.70;99.90;;;;;;5120009;28;20224;-82
2023/01/02 04:24:11;;;;;;;8.90;4.07;;;13.90;99.90;;;;;;5122013;28;20567;-83
2023/01/02 04:26:45;;;;;;;8.43;3.33;;;13.70;99.90;;;;;;5117782;28;20221;-81
2023/01/02 04:29:12;;;;;;;7.10;3.23;;;13.70;99.90;;;;;;5116336;28;20242;-82
2023/01/02 04:31:44;;;;;;;6.53;2.73;;;13.60;99.90;;;;;;5117056;28;20217;-84
2023/01/02 04:34:14;;;;;;;6.73;3.00;;;13.60;99.90;;;;;;5099790;28;20201;-82
2023/01/02 04:36:41;;;;;;;12.50;3.33;;;13.80;99.90;;;;;;5098871;28;20237;-83
2023/01/02 04:39:09;;;;;;;7.53;2.77;;;13.80;99.90;;;;;;5099900;28;20216;-83
2023/01/02 04:41:37;;;;;;;8.80;3.27;;;13.70;99.90;;;;;;5100837;28;20217;-83
2023/01/02 04:44:04;;;;;;;6.83;3.00;;;13.70;99.90;;;;;;5101338;28;20201;-84
2023/01/02 04:46:31;;;;;;;9.23;2.93;;;13.80;99.90;;;;;;5104608;28;20300;-84
2023/01/02 04:48:59;;;;;;;7.57;2.87;;;13.70;99.90;;;;;;5097246;28;20202;-82
2023/01/02 04:51:26;;;;;;;13.07;3.47;;;13.70;99.90;;;;;;5097438;28;20197;-82
2023/01/02 04:53:54;;;;;;;5.13;3.45;;;13.80;99.90;;;;;;5097149;28;20210;-82
2023/01/02 05:02:17;;;;;;;9.83;3.23;;;13.90;99.90;;;;;;5114594;28;20237;-84
2023/01/02 05:08:06;;;;;;;10.33;3.40;;;13.80;99.90;;;;;;5114319;28;20227;-84
2023/01/02 05:10:37;;;;;;;10.63;3.00;;;13.80;99.90;;;;;;5114321;28;20259;-84
2023/01/02 05:13:04;;;;;;;8.20;3.63;;;13.80;99.90;;;;;;5114929;28;20225;-84
2023/01/02 05:15:31;;;;;;;8.13;3.10;;;13.80;99.90;;;;;;5114401;28;20669;-83
2023/01/02 05:17:58;;;;;;;9.43;3.50;;;13.80;99.90;;;;;;5115365;28;20228;-84
2023/01/02 05:20:26;;;;;;;11.40;3.00;;;13.80;99.90;;;;;;5114645;28;20201;-84
2023/01/02 05:25:37;;;;;;;6.63;3.00;;;14.10;99.90;;;;;;5114695;28;20216;-83
2023/01/02 05:28:04;;;;;;;8.47;3.60;;;13.90;99.90;;;;;;5114742;28;20273;-84
2023/01/02 05:30:31;;;;;;;7.32;2.80;;;13.80;99.90;;;;;;5114263;28;20273;-84
2023/01/02 05:32:58;;;;;;;11.18;3.30;;;13.70;99.90;;;;;;5114217;28;20249;-84
2023/01/02 05:35:26;;;;;;;9.07;3.10;;;13.70;99.90;;;;;;5114904;28;20294;-84
2023/01/02 05:37:54;;;;;;;7.57;3.35;;;13.60;99.90;;;;;;5114409;28;20205;-84
2023/01/02 05:40:21;;;;;;;5.83;2.80;;;13.60;99.90;;;;;;5114621;28;20221;-84
2023/01/02 05:42:47;;;;;;;10.10;3.13;;;13.60;99.90;;;;;;5114325;28;20257;-84
2023/01/02 05:45:14;;;;;;;10.63;3.57;;;13.60;99.90;;;;;;5114136;28;20269;-84
2023/01/02 05:47:41;;;;;;;8.43;2.90;;;13.70;99.90;;;;;;5114747;28;20245;-84
2023/01/02 05:50:09;;;;;;;9.47;3.00;;;13.80;99.90;;;;;;5114702;28;20202;-84
2023/01/02 05:52:37;;;;;;;5.30;2.67;;;13.70;99.90;;;;;;5114706;28;20278;-82
2023/01/02 05:55:04;;;;;;;9.80;3.10;;;13.70;99.90;;;;;;5114484;28;20270;-84
2023/01/02 05:57:31;;;;;;;11.97;4.23;;;13.80;99.90;;;;;;5112461;28;20236;-83
2023/01/02 05:59:59;;;;;;;5.23;2.70;;;13.80;99.90;;;;;;5113195;28;20565;-83
2023/01/02 06:02:26;;;;;;;6.77;2.90;;;13.90;99.90;;;;;;5113475;28;20225;-83
2023/01/02 06:04:53;;;;;;;7.65;3.30;;;14.00;99.90;;;;;;5114440;28;20268;-82
2023/01/02 06:07:20;;;;;;;10.07;2.93;;;13.90;99.90;;;;;;5114152;28;20197;-84
2023/01/02 06:09:48;;;;;;;7.65;3.03;;;13.90;99.90;;;;;;5112972;28;20249;-83
2023/01/02 06:12:15;;;;;;;6.33;3.20;;;13.90;99.90;;;;;;5113732;28;20245;-83
2023/01/02 06:14:42;;;;;;;5.60;2.80;;;13.90;99.90;;;;;;5123270;28;20269;-83
2023/01/02 06:17:09;;;;;;;7.63;2.77;;;13.80;99.90;;;;;;5132129;28;20213;-83
2023/01/02 06:19:35;;;;;;;7.30;3.73;;;13.70;99.90;;;;;;5133941;28;20203;-83
2023/01/02 06:22:02;;;;;;;8.30;3.07;;;13.60;99.90;;;;;;5133342;28;20256;-84
2023/01/02 06:24:29;;;;;;;5.10;2.90;;;13.60;99.90;;;;;;5126473;28;20265;-83
2023/01/02 06:26:57;;;;;;;12.50;3.30;;;13.90;99.90;;;;;;5117574;28;20215;-83
2023/01/02 06:29:24;;;;;;;8.00;3.20;;;13.80;99.90;;;;;;5133701;28;20628;-83
2023/01/02 06:31:51;;;;;;;4.70;2.90;;;13.90;99.90;;;;;;5133394;28;20248;-83
2023/01/02 06:34:17;;;;;;;8.83;3.17;;;13.90;99.90;;;;;;5133705;28;20264;-83
2023/01/02 06:36:44;;;;;;;8.63;3.00;;;13.80;99.90;;;;;;5132454;28;20227;-83
2023/01/02 06:39:11;;;;;;;6.80;2.87;;;13.90;99.90;;;;;;5134075;28;20205;-84
2023/01/02 06:41:38;;;;;;;7.70;2.43;;;13.80;99.90;;;;;;5132426;28;20217;-84
2023/01/02 06:44:06;;;;;;;9.27;3.03;;;13.80;99.90;;;;;;5133055;28;20394;-83
2023/01/02 06:46:33;;;;;;;6.60;2.70;;;13.80;99.90;;;;;;5131868;28;20234;-83
2023/01/02 06:48:59;;;;;;;6.70;2.60;;;13.90;99.90;;;;;;5119686;28;20236;-83
2023/01/02 06:51:26;;;;;;;6.47;2.80;;;14.40;99.90;;;;;;5130457;28;20276;-82
2023/01/02 06:53:54;;;;;;;5.07;2.73;;;14.20;99.90;;;;;;5115674;28;20217;-82
2023/01/02 06:56:21;;;;;;;10.68;3.85;;;14.20;99.90;;;;;;5112762;28;20284;-84
2023/01/02 06:58:48;;;;;;;7.97;2.60;;;14.20;99.90;;;;;;5112235;28;20251;-83
2023/01/02 07:01:18;;;;;;;6.22;2.83;;;14.30;99.90;;;;;;5111490;28;20265;-84
2023/01/02 07:03:45;;;;;;;7.80;2.73;;;14.30;99.90;;;;;;5111836;28;20281;-83
2023/01/02 07:06:14;;;;;;;8.10;2.40;;;14.20;99.90;;;;;;5111779;28;20190;-82
2023/01/02 07:08:42;;;;;;;5.63;2.47;;;14.40;99.90;;;;;;5109912;28;20265;-83
2023/01/02 07:11:12;;;;;;;6.63;2.87;;;14.10;99.90;;;;;;5110840;28;20228;-82
2023/01/02 07:13:39;;;;;;;6.38;2.70;;;14.40;99.90;;;;;;5132244;28;20231;-85
2023/01/02 07:16:08;;;;;;;7.57;2.50;;;14.20;99.90;;;;;;5130198;28;20750;-83
2023/01/02 07:18:36;;;;;;;7.23;2.80;;;14.20;99.90;;;;;;5132707;28;20204;-83
2023/01/02 07:21:04;;;;;;;7.73;2.40;;;14.10;99.90;;;;;;5133603;28;20216;-83
2023/01/02 07:23:31;;;;;;;9.10;2.77;;;14.00;99.90;;;;;;5129281;28;20205;-82
2023/01/02 07:26:00;;;;;;;6.47;2.40;;;14.00;99.90;;;;;;5136084;28;20268;-84
2023/01/02 07:28:27;;;;;;;7.10;2.40;;;14.10;99.90;;;;;;5118502;28;20269;-83
2023/01/02 07:30:57;;;;;;;10.10;2.93;;;14.10;99.90;;;;;;5114949;28;20225;-83
2023/01/02 07:33:24;;;;;;;6.93;2.40;;;14.30;99.90;;;;;;5121734;28;20212;-83
2023/01/02 07:35:56;;;;;;;5.47;2.83;;;14.20;99.90;;;;;;5133359;28;20258;-83
2023/01/02 07:38:23;;;;;;;6.13;2.43;;;14.10;99.90;;;;;;5129542;28;20262;-83
2023/01/02 07:40:50;;;;;;;5.50;2.30;;;14.10;99.90;;;;;;5114876;28;20736;-83
2023/01/02 07:43:16;;;;;;;10.33;3.13;;;14.10;99.90;;;;;;5113888;28;20252;-83
2023/01/02 07:45:43;;;;;;;5.87;2.50;;;14.10;99.90;;;;;;5114487;28;20208;-83
2023/01/02 07:48:10;;;;;;;4.60;2.27;;;14.20;99.90;;;;;;5113837;28;20261;-83
2023/01/02 07:50:37;;;;;;;6.97;2.50;;;14.10;99.90;;;;;;5115773;28;20232;-83
2023/01/02 07:53:05;;;;;;;9.33;3.03;;;14.10;99.90;;;;;;5118413;28;20292;-82
2023/01/02 07:55:32;;;;;;;6.40;2.57;;;14.00;99.90;;;;;;5134835;28;20268;-83
2023/01/02 07:57:59;;;;;;;5.60;2.70;;;14.00;99.90;;;;;;5134732;28;20201;-83
2023/01/02 08:00:25;;;;;;;7.45;3.20;;;14.10;99.90;;;;;;5123511;28;20232;-83
2023/01/02 08:02:53;;;;;;;8.70;2.43;;;14.10;99.90;;;;;;5114077;28;20237;-83
2023/01/02 08:05:20;;;;;;;6.53;2.70;;;14.20;99.90;;;;;;5114648;28;20244;-84
2023/01/02 08:07:47;;;;;;;5.27;2.37;;;14.40;99.90;;;;;;5113115;28;20274;-84
2023/01/02 08:10:16;;;;;;;6.40;2.10;;;14.30;99.90;;;;;;5115065;28;20240;-83
2023/01/02 08:12:42;;;;;;;4.43;2.27;;;14.20;99.90;;;;;;5118350;28;20251;-83
2023/01/02 08:15:10;;;;;;;6.40;2.40;;;14.10;99.90;;;;;;5132461;28;20287;-84
2023/01/02 08:17:37;;;;;;;5.50;2.30;;;14.00;99.90;;;;;;5129054;28;20243;-83
2023/01/02 08:20:05;;;;;;;5.17;2.20;;;14.00;99.90;;;;;;5134435;28;20266;-83
2023/01/02 08:22:31;;;;;;;4.00;2.47;;;14.00;99.90;;;;;;5135095;28;20280;-84
2023/01/02 08:24:58;;;;;;;4.87;2.10;;;14.00;99.90;;;;;;5134643;28;20247;-83
2023/01/02 08:27:26;;;;;;;6.33;2.37;;;14.20;99.90;;;;;;5135085;28;20257;-83
2023/01/02 08:29:53;;;;;;;9.10;2.50;;;14.10;99.90;;;;;;5135263;27;20200;-83
2023/01/02 08:32:20;;;;;;;6.13;2.17;;;14.10;99.90;;;;;;5132158;28;20256;-83
2023/01/02 08:34:47;;;;;;;7.03;2.40;;;14.30;99.90;;;;;;5135330;28;20221;-83
2023/01/02 08:37:13;;;;;;;3.50;2.30;;;14.00;99.90;;;;;;5132210;28;20224;-83
2023/01/02 08:39:40;;;;;;;2.87;2.20;;;14.30;99.90;;;;;;5116569;28;20665;-83
2023/01/02 08:42:08;;;;;;;7.77;2.90;;;14.00;99.90;;;;;;5113825;28;20217;-83
2023/01/02 08:44:37;;;;;;;7.37;2.47;;;14.10;99.90;;;;;;5134363;28;20237;-83
2023/01/02 08:47:04;;;;;;;5.17;2.20;;;14.00;99.90;;;;;;5132035;28;20211;-83
2023/01/02 08:49:30;;;;;;;6.97;2.40;;;14.10;99.90;;;;;;5135200;28;20268;-83
2023/01/02 08:51:57;;;;;;;6.03;2.20;;;14.20;99.90;;;;;;5132660;28;20252;-83
2023/01/02 08:54:24;;;;;;;10.00;2.70;;;14.20;99.90;;;;;;5133543;28;20281;-84
2023/01/02 08:56:51;;;;;;;6.75;2.35;;;14.20;99.90;;;;;;5134903;28;20237;-83
2023/01/02 08:59:17;;;;;;;6.33;2.40;;;14.20;99.90;;;;;;5133189;28;20207;-82
2023/01/02 09:01:46;;;;;;;3.63;2.23;;;14.20;99.90;;;;;;5134458;28;20331;-84
2023/01/02 09:04:12;;;;;;;7.80;2.03;;;14.30;99.90;;;;;;5132007;28;20237;-84
2023/01/02 09:06:40;;;;;;;5.83;2.57;;;14.40;99.90;;;;;;5125992;28;20220;-84
2023/01/02 09:09:07;;;;;;;4.20;2.40;;;14.40;99.90;;;;;;5133595;28;20185;-83
2023/01/02 09:11:36;;;;;;;6.45;2.22;;;14.50;99.90;;;;;;5132431;28;20224;-83
2023/01/02 09:14:05;;;;;;;7.28;2.40;;;14.30;99.90;;;;;;5118860;28;20228;-84
2023/01/02 09:16:32;;;;;;;7.82;2.70;;;14.30;99.90;;;;;;5126310;28;20269;-84
2023/01/02 09:19:03;;;;;;;7.23;3.00;;;14.40;99.90;;;;;;5132954;28;20261;-83
2023/01/02 09:21:30;;;;;;;10.50;2.67;;;14.40;99.90;;;;;;5133223;28;20249;-84
2023/01/02 09:23:57;;;;;;;6.95;2.80;;;14.40;99.90;;;;;;5132119;28;20201;-85
2023/01/02 09:26:24;;;;;;;8.30;2.67;;;14.50;99.90;;;;;;5116186;28;20285;-83
2023/01/02 09:28:50;;;;;;;6.70;2.47;;;14.60;99.90;;;;;;5113070;28;20240;-83
2023/01/02 09:31:18;;;;;;;4.73;2.13;;;14.50;99.90;;;;;;5112282;28;20221;-83
2023/01/02 09:33:47;;;;;;;8.27;2.63;;;14.60;99.90;;;;;;5121941;28;20204;-82
2023/01/02 09:36:17;;;;;;;8.63;2.65;;;14.80;99.90;;;;;;5132153;28;20268;-84
2023/01/02 09:38:44;;;;;;;5.23;2.50;;;14.80;99.90;;;;;;5133147;28;20632;-83
2023/01/02 09:41:26;;;;;;;5.57;2.63;;;14.70;99.90;;;;;;5134071;28;20284;-83
2023/01/02 09:43:56;;;;;;;2.93;2.50;;;14.70;99.90;;;;;;5126039;28;20260;-84
2023/01/02 09:46:30;;;;;;;7.57;3.08;;;14.60;99.90;;;;;;5132678;28;20229;-82
2023/01/02 09:48:58;;;;;;;5.32;2.40;;;14.60;99.90;;;;;;5118703;28;20205;-83
2023/01/02 09:51:27;;;;;;;9.30;2.77;;;14.60;99.90;;;;;;5112486;28;20293;-83
2023/01/02 09:53:54;;;;;;;5.50;2.03;;;14.70;99.90;;;;;;5111929;28;20217;-83
2023/01/02 09:56:24;;;;;;;6.15;2.20;;;14.60;99.90;;;;;;5111455;28;20272;-83
2023/01/02 09:58:57;;;;;;;5.90;3.00;;;14.80;99.90;;;;;;5111945;28;20205;-84
2023/01/02 10:01:31;;;;;;;6.17;2.30;;;14.70;99.90;;;;;;5110972;28;20245;-83
2023/01/02 10:04:13;;;;;;;6.30;2.77;;;14.70;99.90;;;;;;5124325;28;20268;-84
2023/01/02 10:06:45;;;;;;;5.87;2.83;;;14.70;99.90;;;;;;5131010;28;20287;-83
2023/01/02 10:09:19;;;;;;;6.40;2.20;;;14.60;99.90;;;;;;5132980;27;20233;-85
2023/01/02 10:11:56;;;;;;;5.68;2.35;;;14.70;99.90;;;;;;5128654;28;20292;-84
2023/01/02 10:14:32;;;;;;;10.32;2.88;;;14.70;99.90;;;;;;5112653;28;20202;-83
2023/01/02 10:17:02;;;;;;;6.23;2.53;;;14.70;99.90;;;;;;5133221;28;20284;-84
2023/01/02 10:19:45;;;;;;;4.32;2.80;;;14.80;99.90;;;;;;5132121;28;20187;-85
2023/01/02 10:22:18;;;;;;;6.18;2.47;;;14.60;99.90;;;;;;5130574;28;20289;-82
2023/01/02 10:24:48;;;;;;;5.82;2.38;;;14.70;99.90;;;;;;5131375;28;20215;-82
2023/01/02 10:27:19;;;;;;;5.05;2.20;;;14.60;99.90;;;;;;5123042;28;20212;-84
2023/01/02 10:29:51;;;;;;;6.40;2.40;;;14.60;99.90;;;;;;5111881;28;20273;-83
2023/01/02 10:32:21;;;;;;;6.88;2.92;;;14.50;99.90;;;;;;5111269;28;20301;-82
2023/01/02 10:35:02;;;;;;;6.40;2.30;;;14.50;99.90;;;;;;5111010;28;20202;-84
2023/01/02 10:37:30;;;;;;;7.93;3.00;;;14.50;99.90;;;;;;5110221;28;20853;-82
2023/01/02 10:39:57;;;;;;;7.57;2.60;;;14.50;99.90;;;;;;5112954;28;20210;-83
2023/01/02 10:42:24;;;;;;;5.53;2.20;;;14.30;99.90;;;;;;5111135;28;20201;-84
2023/01/02 10:44:52;;;;;;;4.97;2.00;;;14.50;99.90;;;;;;5112109;28;20236;-83
2023/01/02 10:47:22;;;;;;;6.90;1.90;;;14.30;99.90;;;;;;5110528;28;20249;-83
2023/01/02 10:49:50;;;;;;;5.00;1.60;;;14.20;99.90;;;;;;5109792;28;20197;-85
2023/01/02 10:52:23;;;;;;;2.90;1.40;;;14.30;99.90;;;;;;5110251;28;20311;-85
2023/01/02 10:54:54;;;;;;;4.63;2.30;;;14.20;99.90;;;;;;5110672;28;20256;-84
2023/01/02 10:57:32;;;;;;;5.63;2.40;;;14.20;99.90;;;;;;5109563;28;20296;-85
2023/01/02 11:00:02;;;;;;;5.88;2.05;;;14.10;99.90;;;;;;5109721;28;20224;-84
2023/01/02 11:02:31;;;;;;;3.97;1.67;;;13.90;99.90;;;;;;5109413;28;20281;-83
2023/01/02 11:05:02;;;;;;;3.43;2.00;;;13.90;99.90;;;;;;5111091;28;20257;-84
2023/01/02 11:07:33;;;;;;;3.57;2.23;;;13.80;99.90;;;;;;5109721;28;20201;-83
2023/01/02 11:10:02;;;;;;;4.63;1.83;;;13.80;99.90;;;;;;5109617;28;20235;-83
2023/01/02 11:12:28;;;;;;;6.95;2.25;;;13.80;99.90;;;;;;5109342;28;20293;-82
2023/01/02 11:15:10;;;;;;;4.23;2.00;;;13.70;99.90;;;;;;5109326;28;20261;-84
2023/01/02 11:17:42;;;;;;;3.73;2.23;;;13.60;99.90;;;;;;5109585;28;20205;-83
2023/01/02 11:20:25;;;;;;;4.00;1.70;;;13.60;99.90;;;;;;5111057;28;20193;-84
2023/01/02 11:22:54;;;;;;;3.00;2.07;;;13.50;99.90;;;;;;5110718;28;20248;-83
2023/01/02 11:25:25;;;;;;;7.60;2.67;;;13.50;99.90;;;;;;5110374;28;20206;-83
2023/01/02 11:27:58;;;;;;;4.50;1.57;;;13.50;99.90;;;;;;5108686;28;20199;-85
2023/01/02 11:30:42;;;;;;;6.53;2.07;;;13.40;99.90;;;;;;5106552;28;20229;-85
2023/01/02 11:33:19;;;;;;;5.00;1.77;;;13.50;99.90;;;;;;5104307;28;20252;-84
2023/01/02 11:35:48;;;;;;;3.57;1.67;;;13.40;99.90;;;;;;5106916;28;20201;-84
2023/01/02 11:38:17;;;;;;;4.30;2.00;;;13.40;99.90;;;;;;5108601;28;20189;-85
2023/01/02 11:40:58;;;;;;;3.17;1.90;;;13.40;99.90;;;;;;5108562;28;20197;-85
2023/01/02 11:43:48;;;;;;;3.13;1.60;;;13.50;99.90;;;;;;5107648;28;20281;-84
2023/01/02 11:46:28;;;;;;;2.93;1.60;;;13.40;99.90;;;;;;5108011;28;20592;-84
2023/01/02 11:49:03;;;;;;;2.27;1.40;;;13.40;99.90;;;;;;5108288;28;20198;-84
2023/01/02 11:51:33;;;;;;;2.07;1.40;;;13.40;99.90;;;;;;5107853;28;20753;-84
2023/01/02 11:54:04;;;;;;;2.97;1.50;;;13.30;99.90;;;;;;5107493;28;20265;-84
2023/01/02 11:56:35;;;;;;;1.80;1.50;;;13.40;99.90;;;;;;5108210;28;20225;-85
2023/01/02 11:59:06;;;;;;;2.63;1.20;;;13.30;99.90;;;;;;5108139;28;20197;-84
2023/01/02 12:01:42;;;;;;;2.37;1.30;;;13.40;99.90;;;;;;5108001;28;20718;-84
2023/01/02 12:04:10;;;;;;;5.20;1.83;;;13.40;99.90;;;;;;5106775;28;20236;-84
2023/01/02 12:06:58;;;;;;;2.93;1.67;;;13.30;99.90;;;;;;5105608;28;20218;-84
2023/01/02 12:09:32;;;;;;;3.67;1.60;;;13.40;99.90;;;;;;5106168;28;20269;-84
2023/01/02 12:12:18;;;;;;;3.17;1.60;;;13.20;99.90;;;;;;5108755;28;20229;-84
2023/01/02 12:15:04;;;;;;;3.23;1.77;;;13.10;99.90;;;;;;5110166;28;20208;-84
2023/01/02 12:17:42;;;;;;;2.13;1.50;;;13.00;99.90;;;;;;5109445;28;20237;-84
2023/01/02 12:20:36;;;;;;;5.47;2.00;;;12.80;99.90;;;;;;5109136;28;20232;-84
2023/01/02 12:23:27;;;;;;;4.87;1.80;;;12.60;99.90;;;;;;5109927;28;20217;-84
2023/01/02 12:26:02;;;;;;;3.77;1.90;;;12.50;99.90;;;;;;5109837;28;20193;-84
2023/01/02 12:28:51;;;;;;;3.50;2.03;;;12.50;99.90;;;;;;5116423;28;20283;-83
2023/01/02 12:31:29;;;;;;;2.73;2.00;;;12.30;99.90;;;;;;5119673;28;20230;-84
2023/01/02 12:34:06;;;;;;;5.37;1.97;;;12.30;99.90;;;;;;5123557;28;20259;-84
2023/01/02 12:36:45;;;;;;;2.87;1.63;;;12.30;99.90;;;;;;5126810;28;20213;-82
2023/01/02 12:39:50;;;;;;;2.80;2.20;;;12.20;99.90;;;;;;5131676;28;20193;-82
2023/01/02 12:42:30;;;;;;;3.23;2.50;;;12.30;99.90;;;;;;5131787;28;20217;-83
2023/01/02 12:44:59;;;;;;;3.13;1.50;;;12.30;99.90;;;;;;5138883;27;20285;-83
2023/01/02 12:47:36;;;;;;;1.67;1.57;;;12.30;99.90;;;;;;5132661;27;20624;-83
2023/01/02 12:50:23;;;;;;;1.73;1.50;;;12.30;99.90;;;;;;5136211;27;20264;-83
2023/01/02 12:53:03;;;;;;;2.67;1.50;;;12.30;99.90;;;;;;5129725;28;20238;-82
2023/01/02 12:55:42;;;;;;;3.53;1.50;;;12.40;99.90;;;;;;5134538;28;20224;-83
2023/01/02 12:58:22;;;;;;;2.50;2.10;;;12.30;99.90;;;;;;5135742;28;20236;-83
2023/01/02 13:01:03;;;;;;;3.07;1.80;;;12.30;99.90;;;;;;5135892;28;20201;-82
2023/01/02 13:03:58;;;;;;;3.40;1.50;;;12.30;99.90;;;;;;5134990;28;20272;-82
2023/01/02 13:06:29;;;;;;;4.87;1.67;;;12.30;99.90;;;;;;5133445;28;20273;-83
2023/01/02 13:09:01;;;;;;;1.57;1.47;;;12.30;99.90;;;;;;5135376;28;20181;-84
2023/01/02 13:11:31;;;;;;;2.17;1.03;;;12.20;99.90;;;;;;5134811;28;20264;-83
2023/01/02 13:14:01;;;;;;;1.60;1.10;;;12.20;99.90;;;;;;5124625;28;20264;-83
2023/01/02 13:16:30;;;;;;;1.13;1.00;;;12.30;99.90;;;;;;5128984;28;20265;-83